sensor_id;sensor_type;location;lat;lon;timestamp;P1;durP1;ratioP1;P2;durP2;ratioP2
54977;SDS011;40873;47.522;19.106;2023-12-07T00:00:34;12.43;;;7.25;;
54977;SDS011;40873;47.522;19.106;2023-12-07T00:03:21;12.93;;;7.65;;
54977;SDS011;40873;47.522;19.106;2023-12-07T00:05:48;15.32;;;7.82;;
54977;SDS011;40873;47.522;19.106;2023-12-07T00:08:16;12.95;;;7.72;;
54977;SDS011;40873;47.522;19.106;2023-12-07T00:10:43;12.07;;;7.45;;
54977;SDS011;40873;47.522;19.106;2023-12-07T00:13:12;10.40;;;6.82;;
54977;SDS011;40873;47.522;19.106;2023-12-07T00:15:42;14.60;;;6.63;;
54977;SDS011;40873;47.522;19.106;2023-12-07T00:18:09;11.75;;;7.35;;
54977;SDS011;40873;47.522;19.106;2023-12-07T00:20:36;11.93;;;7.28;;
54977;SDS011;40873;47.522;19.106;2023-12-07T00:23:04;15.30;;;7.90;;
54977;SDS011;40873;47.522;19.106;2023-12-07T00:25:30;10.82;;;6.78;;
54977;SDS011;40873;47.522;19.106;2023-12-07T00:27:58;13.35;;;7.93;;
54977;SDS011;40873;47.522;19.106;2023-12-07T00:30:27;10.20;;;6.97;;
54977;SDS011;40873;47.522;19.106;2023-12-07T00:32:55;9.48;;;6.32;;
54977;SDS011;40873;47.522;19.106;2023-12-07T00:35:25;11.55;;;6.47;;
54977;SDS011;40873;47.522;19.106;2023-12-07T00:37:56;14.48;;;8.05;;
54977;SDS011;40873;47.522;19.106;2023-12-07T00:40:23;10.02;;;6.18;;
54977;SDS011;40873;47.522;19.106;2023-12-07T00:42:53;7.70;;;5.53;;
54977;SDS011;40873;47.522;19.106;2023-12-07T00:45:20;10.85;;;6.53;;
54977;SDS011;40873;47.522;19.106;2023-12-07T00:47:48;9.35;;;5.30;;
54977;SDS011;40873;47.522;19.106;2023-12-07T00:50:16;8.75;;;5.57;;
54977;SDS011;40873;47.522;19.106;2023-12-07T00:52:44;6.15;;;3.83;;
54977;SDS011;40873;47.522;19.106;2023-12-07T00:55:11;8.27;;;4.25;;
54977;SDS011;40873;47.522;19.106;2023-12-07T00:57:39;6.35;;;3.40;;
54977;SDS011;40873;47.522;19.106;2023-12-07T01:00:07;4.80;;;3.25;;
54977;SDS011;40873;47.522;19.106;2023-12-07T01:02:34;5.57;;;3.17;;
54977;SDS011;40873;47.522;19.106;2023-12-07T01:05:01;4.60;;;3.20;;
54977;SDS011;40873;47.522;19.106;2023-12-07T01:07:33;4.53;;;3.08;;
54977;SDS011;40873;47.522;19.106;2023-12-07T01:09:59;5.75;;;3.08;;
54977;SDS011;40873;47.522;19.106;2023-12-07T01:12:27;5.32;;;3.10;;
54977;SDS011;40873;47.522;19.106;2023-12-07T01:14:54;4.53;;;3.25;;
54977;SDS011;40873;47.522;19.106;2023-12-07T01:17:21;5.20;;;2.40;;
54977;SDS011;40873;47.522;19.106;2023-12-07T01:19:48;5.53;;;2.70;;
54977;SDS011;40873;47.522;19.106;2023-12-07T01:22:18;4.53;;;2.78;;
54977;SDS011;40873;47.522;19.106;2023-12-07T01:24:45;3.67;;;2.65;;
54977;SDS011;40873;47.522;19.106;2023-12-07T01:27:12;4.65;;;3.00;;
54977;SDS011;40873;47.522;19.106;2023-12-07T01:29:39;5.43;;;3.05;;
54977;SDS011;40873;47.522;19.106;2023-12-07T01:32:07;3.83;;;2.75;;
54977;SDS011;40873;47.522;19.106;2023-12-07T01:34:33;3.95;;;2.45;;
54977;SDS011;40873;47.522;19.106;2023-12-07T01:37:01;5.57;;;3.22;;
54977;SDS011;40873;47.522;19.106;2023-12-07T01:39:34;4.82;;;2.83;;
54977;SDS011;40873;47.522;19.106;2023-12-07T01:42:08;4.15;;;2.80;;
54977;SDS011;40873;47.522;19.106;2023-12-07T01:44:35;5.75;;;3.22;;
54977;SDS011;40873;47.522;19.106;2023-12-07T01:47:06;4.35;;;3.10;;
54977;SDS011;40873;47.522;19.106;2023-12-07T01:49:35;6.57;;;3.58;;
54977;SDS011;40873;47.522;19.106;2023-12-07T01:52:03;5.03;;;3.13;;
54977;SDS011;40873;47.522;19.106;2023-12-07T01:54:32;5.20;;;3.05;;
54977;SDS011;40873;47.522;19.106;2023-12-07T01:57:01;5.18;;;3.20;;
54977;SDS011;40873;47.522;19.106;2023-12-07T01:59:29;4.55;;;3.05;;
54977;SDS011;40873;47.522;19.106;2023-12-07T02:01:57;5.35;;;3.15;;
54977;SDS011;40873;47.522;19.106;2023-12-07T02:04:24;6.35;;;3.88;;
54977;SDS011;40873;47.522;19.106;2023-12-07T02:06:52;5.03;;;3.53;;
54977;SDS011;40873;47.522;19.106;2023-12-07T02:09:23;6.55;;;3.30;;
54977;SDS011;40873;47.522;19.106;2023-12-07T02:11:51;4.28;;;3.15;;
54977;SDS011;40873;47.522;19.106;2023-12-07T02:14:18;4.40;;;3.13;;
54977;SDS011;40873;47.522;19.106;2023-12-07T02:16:48;5.60;;;3.55;;
54977;SDS011;40873;47.522;19.106;2023-12-07T02:19:28;6.78;;;3.40;;
54977;SDS011;40873;47.522;19.106;2023-12-07T02:22:18;5.55;;;3.63;;
54977;SDS011;40873;47.522;19.106;2023-12-07T02:27:36;4.38;;;3.17;;
54977;SDS011;40873;47.522;19.106;2023-12-07T02:30:10;7.78;;;4.55;;
54977;SDS011;40873;47.522;19.106;2023-12-07T02:32:39;7.05;;;4.35;;
54977;SDS011;40873;47.522;19.106;2023-12-07T02:35:10;6.30;;;4.55;;
54977;SDS011;40873;47.522;19.106;2023-12-07T02:37:45;6.88;;;4.25;;
54977;SDS011;40873;47.522;19.106;2023-12-07T02:40:24;6.40;;;4.07;;
54977;SDS011;40873;47.522;19.106;2023-12-07T02:42:53;6.32;;;3.80;;
54977;SDS011;40873;47.522;19.106;2023-12-07T02:45:21;6.25;;;3.50;;
54977;SDS011;40873;47.522;19.106;2023-12-07T02:47:48;5.07;;;2.85;;
54977;SDS011;40873;47.522;19.106;2023-12-07T02:50:15;4.10;;;2.80;;
54977;SDS011;40873;47.522;19.106;2023-12-07T02:52:45;6.32;;;3.30;;
54977;SDS011;40873;47.522;19.106;2023-12-07T02:55:12;4.22;;;2.78;;
54977;SDS011;40873;47.522;19.106;2023-12-07T02:57:42;4.53;;;2.65;;
54977;SDS011;40873;47.522;19.106;2023-12-07T03:00:09;4.32;;;3.05;;
54977;SDS011;40873;47.522;19.106;2023-12-07T03:02:41;3.97;;;2.65;;
54977;SDS011;40873;47.522;19.106;2023-12-07T03:05:08;5.57;;;3.15;;
54977;SDS011;40873;47.522;19.106;2023-12-07T03:07:36;6.38;;;2.70;;
54977;SDS011;40873;47.522;19.106;2023-12-07T03:10:03;4.85;;;2.70;;
54977;SDS011;40873;47.522;19.106;2023-12-07T03:12:31;5.60;;;2.70;;
54977;SDS011;40873;47.522;19.106;2023-12-07T03:14:58;5.28;;;3.17;;
54977;SDS011;40873;47.522;19.106;2023-12-07T03:17:25;6.75;;;3.42;;
54977;SDS011;40873;47.522;19.106;2023-12-07T03:19:52;6.43;;;2.92;;
54977;SDS011;40873;47.522;19.106;2023-12-07T03:22:22;4.78;;;3.08;;
54977;SDS011;40873;47.522;19.106;2023-12-07T03:24:52;4.72;;;2.78;;
54977;SDS011;40873;47.522;19.106;2023-12-07T03:27:22;4.72;;;2.83;;
54977;SDS011;40873;47.522;19.106;2023-12-07T03:29:49;6.88;;;3.72;;
54977;SDS011;40873;47.522;19.106;2023-12-07T03:32:18;5.88;;;4.05;;
54977;SDS011;40873;47.522;19.106;2023-12-07T03:34:45;3.92;;;2.70;;
54977;SDS011;40873;47.522;19.106;2023-12-07T03:37:13;5.43;;;2.90;;
54977;SDS011;40873;47.522;19.106;2023-12-07T03:39:39;4.53;;;2.85;;
54977;SDS011;40873;47.522;19.106;2023-12-07T03:42:10;3.90;;;2.40;;
54977;SDS011;40873;47.522;19.106;2023-12-07T03:44:57;4.80;;;2.75;;
54977;SDS011;40873;47.522;19.106;2023-12-07T03:47:24;4.80;;;2.72;;
54977;SDS011;40873;47.522;19.106;2023-12-07T03:49:51;4.38;;;2.65;;
54977;SDS011;40873;47.522;19.106;2023-12-07T03:52:18;5.72;;;3.05;;
54977;SDS011;40873;47.522;19.106;2023-12-07T03:54:45;4.72;;;2.45;;
54977;SDS011;40873;47.522;19.106;2023-12-07T03:57:12;4.10;;;2.25;;
54977;SDS011;40873;47.522;19.106;2023-12-07T03:59:40;4.55;;;2.55;;
54977;SDS011;40873;47.522;19.106;2023-12-07T04:02:07;6.78;;;2.67;;
54977;SDS011;40873;47.522;19.106;2023-12-07T04:04:34;6.13;;;2.22;;
54977;SDS011;40873;47.522;19.106;2023-12-07T04:07:01;4.53;;;2.78;;
54977;SDS011;40873;47.522;19.106;2023-12-07T04:09:29;3.42;;;2.15;;
54977;SDS011;40873;47.522;19.106;2023-12-07T04:11:57;4.13;;;2.22;;
54977;SDS011;40873;47.522;19.106;2023-12-07T04:14:24;2.97;;;1.77;;
54977;SDS011;40873;47.522;19.106;2023-12-07T04:16:56;4.07;;;1.92;;
54977;SDS011;40873;47.522;19.106;2023-12-07T04:19:23;4.55;;;2.20;;
54977;SDS011;40873;47.522;19.106;2023-12-07T04:21:50;3.17;;;2.00;;
54977;SDS011;40873;47.522;19.106;2023-12-07T04:24:19;2.78;;;1.75;;
54977;SDS011;40873;47.522;19.106;2023-12-07T04:26:49;4.68;;;1.90;;
54977;SDS011;40873;47.522;19.106;2023-12-07T04:29:16;2.78;;;1.90;;
54977;SDS011;40873;47.522;19.106;2023-12-07T04:31:43;2.20;;;1.35;;
54977;SDS011;40873;47.522;19.106;2023-12-07T04:34:13;2.38;;;1.48;;
54977;SDS011;40873;47.522;19.106;2023-12-07T04:36:42;4.10;;;1.70;;
54977;SDS011;40873;47.522;19.106;2023-12-07T04:39:08;2.85;;;1.67;;
54977;SDS011;40873;47.522;19.106;2023-12-07T04:41:36;3.38;;;1.77;;
54977;SDS011;40873;47.522;19.106;2023-12-07T04:44:02;3.60;;;2.10;;
54977;SDS011;40873;47.522;19.106;2023-12-07T04:46:32;2.78;;;1.27;;
54977;SDS011;40873;47.522;19.106;2023-12-07T04:49:00;3.95;;;1.55;;
54977;SDS011;40873;47.522;19.106;2023-12-07T04:51:27;2.63;;;1.45;;
54977;SDS011;40873;47.522;19.106;2023-12-07T04:53:54;2.30;;;1.58;;
54977;SDS011;40873;47.522;19.106;2023-12-07T04:56:42;2.58;;;1.63;;
54977;SDS011;40873;47.522;19.106;2023-12-07T04:59:11;2.63;;;1.80;;
54977;SDS011;40873;47.522;19.106;2023-12-07T05:01:38;3.50;;;2.15;;
54977;SDS011;40873;47.522;19.106;2023-12-07T05:04:06;3.17;;;2.05;;
54977;SDS011;40873;47.522;19.106;2023-12-07T05:06:33;4.70;;;2.70;;
54977;SDS011;40873;47.522;19.106;2023-12-07T05:09:01;4.43;;;2.40;;
54977;SDS011;40873;47.522;19.106;2023-12-07T05:11:36;6.07;;;2.80;;
54977;SDS011;40873;47.522;19.106;2023-12-07T05:14:04;5.90;;;2.95;;
54977;SDS011;40873;47.522;19.106;2023-12-07T05:16:31;5.80;;;3.67;;
54977;SDS011;40873;47.522;19.106;2023-12-07T05:19:01;4.75;;;3.08;;
54977;SDS011;40873;47.522;19.106;2023-12-07T05:21:32;6.20;;;4.30;;
54977;SDS011;40873;47.522;19.106;2023-12-07T05:23:58;5.50;;;3.40;;
54977;SDS011;40873;47.522;19.106;2023-12-07T05:26:26;6.57;;;3.30;;
54977;SDS011;40873;47.522;19.106;2023-12-07T05:28:53;8.68;;;4.47;;
54977;SDS011;40873;47.522;19.106;2023-12-07T05:31:24;6.75;;;3.58;;
54977;SDS011;40873;47.522;19.106;2023-12-07T05:33:52;10.18;;;4.25;;
54977;SDS011;40873;47.522;19.106;2023-12-07T05:36:22;9.27;;;4.78;;
54977;SDS011;40873;47.522;19.106;2023-12-07T05:38:49;10.60;;;4.82;;
54977;SDS011;40873;47.522;19.106;2023-12-07T05:41:16;10.27;;;5.45;;
54977;SDS011;40873;47.522;19.106;2023-12-07T05:43:43;9.27;;;5.00;;
54977;SDS011;40873;47.522;19.106;2023-12-07T05:46:11;7.05;;;4.25;;
54977;SDS011;40873;47.522;19.106;2023-12-07T05:48:38;6.40;;;3.08;;
54977;SDS011;40873;47.522;19.106;2023-12-07T05:51:05;5.25;;;3.25;;
54977;SDS011;40873;47.522;19.106;2023-12-07T05:53:33;7.25;;;3.25;;
54977;SDS011;40873;47.522;19.106;2023-12-07T05:56:00;5.47;;;2.80;;
54977;SDS011;40873;47.522;19.106;2023-12-07T05:58:30;5.97;;;2.83;;
54977;SDS011;40873;47.522;19.106;2023-12-07T06:00:57;6.20;;;2.47;;
54977;SDS011;40873;47.522;19.106;2023-12-07T06:03:26;6.30;;;2.90;;
54977;SDS011;40873;47.522;19.106;2023-12-07T06:05:54;4.53;;;2.88;;
54977;SDS011;40873;47.522;19.106;2023-12-07T06:08:22;11.73;;;4.03;;
54977;SDS011;40873;47.522;19.106;2023-12-07T06:10:49;5.38;;;3.50;;
54977;SDS011;40873;47.522;19.106;2023-12-07T06:13:18;5.65;;;3.58;;
54977;SDS011;40873;47.522;19.106;2023-12-07T06:15:47;5.00;;;3.50;;
54977;SDS011;40873;47.522;19.106;2023-12-07T06:18:13;9.18;;;4.65;;
54977;SDS011;40873;47.522;19.106;2023-12-07T06:20:43;8.23;;;5.32;;
54977;SDS011;40873;47.522;19.106;2023-12-07T06:23:10;10.48;;;4.28;;
54977;SDS011;40873;47.522;19.106;2023-12-07T06:25:39;7.22;;;4.15;;
54977;SDS011;40873;47.522;19.106;2023-12-07T06:28:07;5.70;;;3.95;;
54977;SDS011;40873;47.522;19.106;2023-12-07T06:30:35;9.82;;;4.80;;
54977;SDS011;40873;47.522;19.106;2023-12-07T06:33:02;8.27;;;5.10;;
54977;SDS011;40873;47.522;19.106;2023-12-07T06:35:30;7.28;;;4.30;;
54977;SDS011;40873;47.522;19.106;2023-12-07T06:37:57;6.38;;;4.25;;
54977;SDS011;40873;47.522;19.106;2023-12-07T06:40:24;6.65;;;3.80;;
54977;SDS011;40873;47.522;19.106;2023-12-07T06:42:54;8.55;;;4.00;;
54977;SDS011;40873;47.522;19.106;2023-12-07T06:45:24;5.90;;;3.67;;
54977;SDS011;40873;47.522;19.106;2023-12-07T06:47:51;4.43;;;3.03;;
54977;SDS011;40873;47.522;19.106;2023-12-07T06:50:21;5.88;;;3.50;;
54977;SDS011;40873;47.522;19.106;2023-12-07T06:52:50;11.60;;;3.40;;
54977;SDS011;40873;47.522;19.106;2023-12-07T06:55:17;9.30;;;3.75;;
54977;SDS011;40873;47.522;19.106;2023-12-07T06:57:45;8.90;;;4.00;;
54977;SDS011;40873;47.522;19.106;2023-12-07T07:00:12;7.80;;;3.75;;
54977;SDS011;40873;47.522;19.106;2023-12-07T07:02:48;15.32;;;5.82;;
54977;SDS011;40873;47.522;19.106;2023-12-07T07:05:16;16.42;;;4.10;;
54977;SDS011;40873;47.522;19.106;2023-12-07T07:07:43;16.17;;;4.25;;
54977;SDS011;40873;47.522;19.106;2023-12-07T07:10:10;12.10;;;5.05;;
54977;SDS011;40873;47.522;19.106;2023-12-07T07:12:40;12.95;;;5.30;;
54977;SDS011;40873;47.522;19.106;2023-12-07T07:15:10;12.48;;;5.35;;
54977;SDS011;40873;47.522;19.106;2023-12-07T07:17:36;13.50;;;5.97;;
54977;SDS011;40873;47.522;19.106;2023-12-07T07:20:04;10.52;;;5.00;;
54977;SDS011;40873;47.522;19.106;2023-12-07T07:22:32;12.30;;;5.32;;
54977;SDS011;40873;47.522;19.106;2023-12-07T07:24:59;7.57;;;5.00;;
54977;SDS011;40873;47.522;19.106;2023-12-07T07:27:26;13.18;;;4.95;;
54977;SDS011;40873;47.522;19.106;2023-12-07T07:29:53;12.43;;;4.88;;
54977;SDS011;40873;47.522;19.106;2023-12-07T07:32:20;8.05;;;4.72;;
54977;SDS011;40873;47.522;19.106;2023-12-07T07:34:47;10.02;;;4.50;;
54977;SDS011;40873;47.522;19.106;2023-12-07T07:37:14;6.63;;;4.63;;
54977;SDS011;40873;47.522;19.106;2023-12-07T07:39:41;10.20;;;4.85;;
54977;SDS011;40873;47.522;19.106;2023-12-07T07:42:08;7.70;;;4.53;;
54977;SDS011;40873;47.522;19.106;2023-12-07T07:44:35;8.63;;;5.00;;
54977;SDS011;40873;47.522;19.106;2023-12-07T07:47:05;9.52;;;4.88;;
54977;SDS011;40873;47.522;19.106;2023-12-07T07:49:35;7.93;;;5.25;;
54977;SDS011;40873;47.522;19.106;2023-12-07T07:52:02;7.93;;;5.32;;
54977;SDS011;40873;47.522;19.106;2023-12-07T07:54:32;9.77;;;5.65;;
54977;SDS011;40873;47.522;19.106;2023-12-07T07:57:02;9.70;;;6.18;;
54977;SDS011;40873;47.522;19.106;2023-12-07T07:59:29;10.00;;;5.57;;
54977;SDS011;40873;47.522;19.106;2023-12-07T08:01:57;9.35;;;5.80;;
54977;SDS011;40873;47.522;19.106;2023-12-07T08:04:24;9.75;;;6.03;;
54977;SDS011;40873;47.522;19.106;2023-12-07T08:06:51;8.57;;;5.97;;
54977;SDS011;40873;47.522;19.106;2023-12-07T08:09:21;9.73;;;6.22;;
54977;SDS011;40873;47.522;19.106;2023-12-07T08:11:48;9.48;;;6.70;;
54977;SDS011;40873;47.522;19.106;2023-12-07T08:14:15;11.45;;;6.93;;
54977;SDS011;40873;47.522;19.106;2023-12-07T08:16:45;11.05;;;6.10;;
54977;SDS011;40873;47.522;19.106;2023-12-07T08:19:13;10.98;;;6.70;;
54977;SDS011;40873;47.522;19.106;2023-12-07T08:21:40;11.45;;;6.53;;
54977;SDS011;40873;47.522;19.106;2023-12-07T08:24:09;9.25;;;6.50;;
54977;SDS011;40873;47.522;19.106;2023-12-07T08:26:35;9.93;;;6.70;;
54977;SDS011;40873;47.522;19.106;2023-12-07T08:29:02;14.18;;;9.13;;
54977;SDS011;40873;47.522;19.106;2023-12-07T08:31:33;12.30;;;8.00;;
54977;SDS011;40873;47.522;19.106;2023-12-07T08:34:00;14.48;;;7.28;;
54977;SDS011;40873;47.522;19.106;2023-12-07T08:36:27;14.00;;;7.18;;
54977;SDS011;40873;47.522;19.106;2023-12-07T08:38:54;14.32;;;7.18;;
54977;SDS011;40873;47.522;19.106;2023-12-07T08:41:21;14.27;;;7.75;;
54977;SDS011;40873;47.522;19.106;2023-12-07T08:43:49;12.52;;;7.32;;
54977;SDS011;40873;47.522;19.106;2023-12-07T08:46:16;11.73;;;7.70;;
54977;SDS011;40873;47.522;19.106;2023-12-07T08:48:43;12.48;;;7.50;;
54977;SDS011;40873;47.522;19.106;2023-12-07T08:51:12;13.20;;;7.78;;
54977;SDS011;40873;47.522;19.106;2023-12-07T08:53:42;13.77;;;7.15;;
54977;SDS011;40873;47.522;19.106;2023-12-07T08:56:09;12.60;;;7.63;;
54977;SDS011;40873;47.522;19.106;2023-12-07T08:58:37;11.32;;;6.93;;
54977;SDS011;40873;47.522;19.106;2023-12-07T09:01:07;10.65;;;6.57;;
54977;SDS011;40873;47.522;19.106;2023-12-07T09:03:45;12.70;;;8.38;;
54977;SDS011;40873;47.522;19.106;2023-12-07T09:06:14;13.43;;;7.45;;
54977;SDS011;40873;47.522;19.106;2023-12-07T09:08:41;14.10;;;7.60;;
54977;SDS011;40873;47.522;19.106;2023-12-07T09:11:10;14.55;;;8.27;;
54977;SDS011;40873;47.522;19.106;2023-12-07T09:13:37;13.52;;;9.40;;
54977;SDS011;40873;47.522;19.106;2023-12-07T09:16:05;16.05;;;8.68;;
54977;SDS011;40873;47.522;19.106;2023-12-07T09:18:33;17.10;;;8.70;;
54977;SDS011;40873;47.522;19.106;2023-12-07T09:21:02;16.15;;;9.20;;
54977;SDS011;40873;47.522;19.106;2023-12-07T09:23:32;11.73;;;8.10;;
54977;SDS011;40873;47.522;19.106;2023-12-07T09:26:01;15.07;;;8.25;;
54977;SDS011;40873;47.522;19.106;2023-12-07T09:28:31;21.60;;;10.07;;
54977;SDS011;40873;47.522;19.106;2023-12-07T09:30:59;16.05;;;10.15;;
54977;SDS011;40873;47.522;19.106;2023-12-07T09:33:31;16.15;;;9.63;;
54977;SDS011;40873;47.522;19.106;2023-12-07T09:35:58;17.60;;;9.25;;
54977;SDS011;40873;47.522;19.106;2023-12-07T09:38:25;13.90;;;9.07;;
54977;SDS011;40873;47.522;19.106;2023-12-07T09:40:53;18.42;;;11.35;;
54977;SDS011;40873;47.522;19.106;2023-12-07T09:43:21;19.98;;;9.63;;
54977;SDS011;40873;47.522;19.106;2023-12-07T09:45:48;17.45;;;9.43;;
54977;SDS011;40873;47.522;19.106;2023-12-07T09:48:18;18.65;;;9.73;;
54977;SDS011;40873;47.522;19.106;2023-12-07T09:50:47;15.57;;;9.23;;
54977;SDS011;40873;47.522;19.106;2023-12-07T09:53:15;17.40;;;9.45;;
54977;SDS011;40873;47.522;19.106;2023-12-07T09:55:41;17.10;;;9.85;;
54977;SDS011;40873;47.522;19.106;2023-12-07T09:58:09;22.90;;;9.43;;
54977;SDS011;40873;47.522;19.106;2023-12-07T10:00:36;22.58;;;10.55;;
54977;SDS011;40873;47.522;19.106;2023-12-07T10:03:05;18.85;;;10.00;;
54977;SDS011;40873;47.522;19.106;2023-12-07T10:06:11;22.10;;;10.10;;
54977;SDS011;40873;47.522;19.106;2023-12-07T10:08:32;12.10;;;7.95;;
54977;SDS011;40873;47.522;19.106;2023-12-07T10:11:06;12.13;;;7.95;;
54977;SDS011;40873;47.522;19.106;2023-12-07T10:13:38;12.80;;;8.30;;
54977;SDS011;40873;47.522;19.106;2023-12-07T10:16:12;19.40;;;9.75;;
54977;SDS011;40873;47.522;19.106;2023-12-07T10:18:42;15.27;;;9.13;;
54977;SDS011;40873;47.522;19.106;2023-12-07T10:21:11;14.90;;;8.13;;
54977;SDS011;40873;47.522;19.106;2023-12-07T10:23:40;13.80;;;8.05;;
54977;SDS011;40873;47.522;19.106;2023-12-07T10:26:10;17.13;;;8.93;;
54977;SDS011;40873;47.522;19.106;2023-12-07T10:28:45;16.77;;;9.30;;
54977;SDS011;40873;47.522;19.106;2023-12-07T10:31:17;13.57;;;7.72;;
54977;SDS011;40873;47.522;19.106;2023-12-07T10:33:47;12.32;;;7.03;;
54977;SDS011;40873;47.522;19.106;2023-12-07T10:36:15;14.60;;;7.60;;
54977;SDS011;40873;47.522;19.106;2023-12-07T10:38:45;12.27;;;7.18;;
54977;SDS011;40873;47.522;19.106;2023-12-07T10:41:13;13.27;;;7.28;;
54977;SDS011;40873;47.522;19.106;2023-12-07T10:43:43;12.13;;;6.95;;
54977;SDS011;40873;47.522;19.106;2023-12-07T10:46:15;11.23;;;7.05;;
54977;SDS011;40873;47.522;19.106;2023-12-07T10:48:45;13.27;;;6.90;;
54977;SDS011;40873;47.522;19.106;2023-12-07T10:54:05;18.98;;;10.13;;
54977;SDS011;40873;47.522;19.106;2023-12-07T10:56:38;17.40;;;10.77;;
54977;SDS011;40873;47.522;19.106;2023-12-07T10:59:10;17.67;;;10.25;;
54977;SDS011;40873;47.522;19.106;2023-12-07T11:01:56;19.88;;;10.85;;
54977;SDS011;40873;47.522;19.106;2023-12-07T11:04:27;16.00;;;9.07;;
54977;SDS011;40873;47.522;19.106;2023-12-07T11:06:57;16.00;;;9.38;;
54977;SDS011;40873;47.522;19.106;2023-12-07T11:09:32;19.25;;;10.18;;
54977;SDS011;40873;47.522;19.106;2023-12-07T11:12:11;16.13;;;10.23;;
54977;SDS011;40873;47.522;19.106;2023-12-07T11:14:44;15.25;;;9.48;;
54977;SDS011;40873;47.522;19.106;2023-12-07T11:17:12;13.73;;;9.98;;
54977;SDS011;40873;47.522;19.106;2023-12-07T11:19:46;19.08;;;10.45;;
54977;SDS011;40873;47.522;19.106;2023-12-07T11:22:13;18.27;;;9.40;;
54977;SDS011;40873;47.522;19.106;2023-12-07T11:24:57;22.15;;;10.07;;
54977;SDS011;40873;47.522;19.106;2023-12-07T11:27:31;19.38;;;9.52;;
54977;SDS011;40873;47.522;19.106;2023-12-07T11:29:59;14.77;;;9.75;;
54977;SDS011;40873;47.522;19.106;2023-12-07T11:32:27;15.50;;;9.52;;
54977;SDS011;40873;47.522;19.106;2023-12-07T11:34:59;15.32;;;9.38;;
54977;SDS011;40873;47.522;19.106;2023-12-07T11:37:31;13.52;;;8.52;;
54977;SDS011;40873;47.522;19.106;2023-12-07T11:40:29;13.43;;;9.40;;
54977;SDS011;40873;47.522;19.106;2023-12-07T11:42:59;13.65;;;9.50;;
54977;SDS011;40873;47.522;19.106;2023-12-07T11:45:35;19.73;;;10.35;;
54977;SDS011;40873;47.522;19.106;2023-12-07T11:48:10;20.63;;;10.00;;
54977;SDS011;40873;47.522;19.106;2023-12-07T11:50:56;17.08;;;10.00;;
54977;SDS011;40873;47.522;19.106;2023-12-07T11:53:25;17.30;;;10.23;;
54977;SDS011;40873;47.522;19.106;2023-12-07T11:55:53;17.40;;;10.60;;
54977;SDS011;40873;47.522;19.106;2023-12-07T11:58:21;19.80;;;11.93;;
54977;SDS011;40873;47.522;19.106;2023-12-07T12:00:48;19.45;;;11.70;;
54977;SDS011;40873;47.522;19.106;2023-12-07T12:03:18;22.60;;;11.50;;
54977;SDS011;40873;47.522;19.106;2023-12-07T12:05:46;18.98;;;12.00;;
54977;SDS011;40873;47.522;19.106;2023-12-07T12:08:15;19.90;;;12.25;;
54977;SDS011;40873;47.522;19.106;2023-12-07T12:10:45;22.35;;;12.38;;
54977;SDS011;40873;47.522;19.106;2023-12-07T12:13:15;17.50;;;11.60;;
54977;SDS011;40873;47.522;19.106;2023-12-07T12:15:43;21.10;;;12.38;;
54977;SDS011;40873;47.522;19.106;2023-12-07T12:18:10;18.58;;;11.10;;
54977;SDS011;40873;47.522;19.106;2023-12-07T12:20:39;18.88;;;11.85;;
54977;SDS011;40873;47.522;19.106;2023-12-07T12:23:06;18.63;;;11.45;;
54977;SDS011;40873;47.522;19.106;2023-12-07T12:25:33;18.33;;;11.93;;
54977;SDS011;40873;47.522;19.106;2023-12-07T12:28:04;17.60;;;11.57;;
54977;SDS011;40873;47.522;19.106;2023-12-07T12:30:33;17.33;;;11.75;;
54977;SDS011;40873;47.522;19.106;2023-12-07T12:33:01;22.42;;;12.77;;
54977;SDS011;40873;47.522;19.106;2023-12-07T12:35:29;18.25;;;11.48;;
54977;SDS011;40873;47.522;19.106;2023-12-07T12:37:56;20.63;;;12.30;;
54977;SDS011;40873;47.522;19.106;2023-12-07T12:40:28;18.92;;;12.13;;
54977;SDS011;40873;47.522;19.106;2023-12-07T12:43:01;18.17;;;10.98;;
54977;SDS011;40873;47.522;19.106;2023-12-07T12:45:28;14.38;;;10.23;;
54977;SDS011;40873;47.522;19.106;2023-12-07T12:47:59;17.63;;;12.10;;
54977;SDS011;40873;47.522;19.106;2023-12-07T12:50:39;18.17;;;11.27;;
54977;SDS011;40873;47.522;19.106;2023-12-07T12:53:08;15.30;;;10.50;;
54977;SDS011;40873;47.522;19.106;2023-12-07T12:55:37;17.42;;;10.23;;
54977;SDS011;40873;47.522;19.106;2023-12-07T12:58:09;16.10;;;9.85;;
54977;SDS011;40873;47.522;19.106;2023-12-07T13:00:40;15.20;;;10.32;;
54977;SDS011;40873;47.522;19.106;2023-12-07T13:03:11;15.07;;;10.07;;
54977;SDS011;40873;47.522;19.106;2023-12-07T13:05:41;16.95;;;9.95;;
54977;SDS011;40873;47.522;19.106;2023-12-07T13:08:08;18.23;;;11.30;;
54977;SDS011;40873;47.522;19.106;2023-12-07T13:10:40;16.87;;;10.97;;
54977;SDS011;40873;47.522;19.106;2023-12-07T13:13:08;16.63;;;10.85;;
54977;SDS011;40873;47.522;19.106;2023-12-07T13:15:35;16.80;;;10.48;;
54977;SDS011;40873;47.522;19.106;2023-12-07T13:18:02;17.75;;;11.15;;
54977;SDS011;40873;47.522;19.106;2023-12-07T13:20:35;17.92;;;10.20;;
54977;SDS011;40873;47.522;19.106;2023-12-07T13:23:06;19.10;;;10.97;;
54977;SDS011;40873;47.522;19.106;2023-12-07T13:25:33;18.20;;;11.15;;
54977;SDS011;40873;47.522;19.106;2023-12-07T13:28:00;18.17;;;11.50;;
54977;SDS011;40873;47.522;19.106;2023-12-07T13:30:27;21.08;;;12.05;;
54977;SDS011;40873;47.522;19.106;2023-12-07T13:32:56;19.42;;;11.63;;
54977;SDS011;40873;47.522;19.106;2023-12-07T13:35:23;19.83;;;11.68;;
54977;SDS011;40873;47.522;19.106;2023-12-07T13:37:51;23.52;;;13.05;;
54977;SDS011;40873;47.522;19.106;2023-12-07T13:40:18;19.15;;;12.20;;
54977;SDS011;40873;47.522;19.106;2023-12-07T13:42:48;20.33;;;13.10;;
54977;SDS011;40873;47.522;19.106;2023-12-07T13:45:15;21.00;;;12.82;;
54977;SDS011;40873;47.522;19.106;2023-12-07T13:47:42;20.55;;;12.02;;
54977;SDS011;40873;47.522;19.106;2023-12-07T13:50:11;22.48;;;13.25;;
54977;SDS011;40873;47.522;19.106;2023-12-07T13:52:38;23.00;;;13.32;;
54977;SDS011;40873;47.522;19.106;2023-12-07T13:55:09;24.92;;;13.48;;
54977;SDS011;40873;47.522;19.106;2023-12-07T13:57:39;21.75;;;13.95;;
54977;SDS011;40873;47.522;19.106;2023-12-07T14:00:06;22.33;;;15.35;;
54977;SDS011;40873;47.522;19.106;2023-12-07T14:02:39;25.52;;;14.32;;
54977;SDS011;40873;47.522;19.106;2023-12-07T14:05:06;25.38;;;13.25;;
54977;SDS011;40873;47.522;19.106;2023-12-07T14:07:35;25.95;;;14.18;;
54977;SDS011;40873;47.522;19.106;2023-12-07T14:10:02;28.60;;;15.55;;
54977;SDS011;40873;47.522;19.106;2023-12-07T14:12:30;26.60;;;13.93;;
54977;SDS011;40873;47.522;19.106;2023-12-07T14:15:00;23.70;;;13.48;;
54977;SDS011;40873;47.522;19.106;2023-12-07T14:17:27;30.08;;;15.65;;
54977;SDS011;40873;47.522;19.106;2023-12-07T14:20:07;24.80;;;14.05;;
54977;SDS011;40873;47.522;19.106;2023-12-07T14:22:56;28.23;;;15.73;;
54977;SDS011;40873;47.522;19.106;2023-12-07T14:25:31;28.95;;;16.90;;
54977;SDS011;40873;47.522;19.106;2023-12-07T14:27:57;26.30;;;14.93;;
54977;SDS011;40873;47.522;19.106;2023-12-07T14:30:25;26.20;;;15.25;;
54977;SDS011;40873;47.522;19.106;2023-12-07T14:32:55;26.65;;;14.32;;
54977;SDS011;40873;47.522;19.106;2023-12-07T14:35:25;22.55;;;14.30;;
54977;SDS011;40873;47.522;19.106;2023-12-07T14:37:52;29.52;;;15.65;;
54977;SDS011;40873;47.522;19.106;2023-12-07T14:40:19;22.58;;;12.88;;